sensor_id;sensor_type;location;lat;lon;timestamp;P1;durP1;ratioP1;P2;durP2;ratioP2
70927;SDS011;58587;53.034;18.576;2022-08-21T00:00:59;12.90;;;6.03;;
70927;SDS011;58587;53.034;18.576;2022-08-21T00:03:28;16.15;;;7.10;;
70927;SDS011;58587;53.034;18.576;2022-08-21T00:05:53;11.53;;;6.67;;
70927;SDS011;58587;53.034;18.576;2022-08-21T00:08:19;12.23;;;6.67;;
70927;SDS011;58587;53.034;18.576;2022-08-21T00:10:45;12.63;;;6.70;;
70927;SDS011;58587;53.034;18.576;2022-08-21T00:13:11;11.57;;;6.60;;
70927;SDS011;58587;53.034;18.576;2022-08-21T00:15:38;10.70;;;6.50;;
70927;SDS011;58587;53.034;18.576;2022-08-21T00:18:06;13.38;;;6.25;;
70927;SDS011;58587;53.034;18.576;2022-08-21T00:20:33;9.45;;;5.57;;
70927;SDS011;58587;53.034;18.576;2022-08-21T00:22:59;14.67;;;6.63;;
70927;SDS011;58587;53.034;18.576;2022-08-21T00:25:25;15.48;;;6.93;;
70927;SDS011;58587;53.034;18.576;2022-08-21T00:27:51;12.07;;;6.53;;
70927;SDS011;58587;53.034;18.576;2022-08-21T00:30:17;10.70;;;6.13;;
70927;SDS011;58587;53.034;18.576;2022-08-21T00:32:43;9.98;;;5.75;;
70927;SDS011;58587;53.034;18.576;2022-08-21T00:35:10;10.90;;;6.10;;
70927;SDS011;58587;53.034;18.576;2022-08-21T00:37:39;13.25;;;5.60;;
70927;SDS011;58587;53.034;18.576;2022-08-21T00:40:06;13.82;;;6.40;;
70927;SDS011;58587;53.034;18.576;2022-08-21T00:42:34;11.90;;;5.68;;
70927;SDS011;58587;53.034;18.576;2022-08-21T00:44:59;11.03;;;5.40;;
70927;SDS011;58587;53.034;18.576;2022-08-21T00:47:25;11.63;;;6.00;;
70927;SDS011;58587;53.034;18.576;2022-08-21T00:49:50;11.63;;;5.43;;
70927;SDS011;58587;53.034;18.576;2022-08-21T00:52:21;11.38;;;6.40;;
70927;SDS011;58587;53.034;18.576;2022-08-21T00:54:49;10.80;;;5.70;;
70927;SDS011;58587;53.034;18.576;2022-08-21T00:57:17;13.85;;;6.53;;
70927;SDS011;58587;53.034;18.576;2022-08-21T00:59:47;11.45;;;6.43;;
70927;SDS011;58587;53.034;18.576;2022-08-21T01:02:16;11.57;;;6.18;;
70927;SDS011;58587;53.034;18.576;2022-08-21T07:57:46;34.17;;;17.55;;
70927;SDS011;58587;53.034;18.576;2022-08-21T08:00:13;31.77;;;16.75;;
70927;SDS011;58587;53.034;18.576;2022-08-21T08:02:43;28.58;;;17.23;;
70927;SDS011;58587;53.034;18.576;2022-08-21T08:05:10;31.47;;;17.77;;
70927;SDS011;58587;53.034;18.576;2022-08-21T08:07:37;22.23;;;14.60;;
70927;SDS011;58587;53.034;18.576;2022-08-21T08:10:04;21.55;;;15.25;;
70927;SDS011;58587;53.034;18.576;2022-08-21T08:12:31;21.63;;;13.90;;
70927;SDS011;58587;53.034;18.576;2022-08-21T08:14:58;19.98;;;13.18;;
70927;SDS011;58587;53.034;18.576;2022-08-21T08:17:25;18.27;;;12.33;;
70927;SDS011;58587;53.034;18.576;2022-08-21T08:19:51;20.63;;;12.45;;
70927;SDS011;58587;53.034;18.576;2022-08-21T08:22:18;23.77;;;12.38;;
70927;SDS011;58587;53.034;18.576;2022-08-21T08:24:47;18.63;;;12.18;;
70927;SDS011;58587;53.034;18.576;2022-08-21T08:27:13;20.15;;;12.23;;
70927;SDS011;58587;53.034;18.576;2022-08-21T08:29:39;18.87;;;12.17;;
70927;SDS011;58587;53.034;18.576;2022-08-21T08:32:05;16.42;;;11.15;;
70927;SDS011;58587;53.034;18.576;2022-08-21T08:34:32;19.07;;;12.40;;
70927;SDS011;58587;53.034;18.576;2022-08-21T08:36:58;16.45;;;11.85;;
70927;SDS011;58587;53.034;18.576;2022-08-21T08:39:23;22.02;;;11.80;;
70927;SDS011;58587;53.034;18.576;2022-08-21T08:41:50;18.20;;;12.47;;
70927;SDS011;58587;53.034;18.576;2022-08-21T08:44:23;17.95;;;12.57;;
70927;SDS011;58587;53.034;18.576;2022-08-21T08:46:49;18.98;;;12.55;;
70927;SDS011;58587;53.034;18.576;2022-08-21T08:51:50;19.37;;;12.87;;
70927;SDS011;58587;53.034;18.576;2022-08-21T08:54:22;18.33;;;12.88;;
70927;SDS011;58587;53.034;18.576;2022-08-21T08:57:19;17.08;;;12.07;;
70927;SDS011;58587;53.034;18.576;2022-08-21T08:59:48;18.00;;;11.20;;
70927;SDS011;58587;53.034;18.576;2022-08-21T09:02:17;17.40;;;12.27;;
70927;SDS011;58587;53.034;18.576;2022-08-21T09:04:44;17.63;;;11.70;;
70927;SDS011;58587;53.034;18.576;2022-08-21T09:07:31;17.48;;;12.15;;
70927;SDS011;58587;53.034;18.576;2022-08-21T09:18:25;20.07;;;13.30;;
70927;SDS011;58587;53.034;18.576;2022-08-21T09:21:20;17.02;;;12.43;;
70927;SDS011;58587;53.034;18.576;2022-08-21T09:29:19;17.58;;;12.88;;
70927;SDS011;58587;53.034;18.576;2022-08-21T09:31:49;17.70;;;12.50;;
70927;SDS011;58587;53.034;18.576;2022-08-21T09:34:23;16.08;;;11.65;;
70927;SDS011;58587;53.034;18.576;2022-08-21T09:36:57;18.30;;;12.13;;
70927;SDS011;58587;53.034;18.576;2022-08-21T09:39:27;19.73;;;12.50;;
70927;SDS011;58587;53.034;18.576;2022-08-21T09:41:56;18.90;;;11.63;;
70927;SDS011;58587;53.034;18.576;2022-08-21T09:44:31;16.27;;;11.88;;
70927;SDS011;58587;53.034;18.576;2022-08-21T09:46:58;17.30;;;11.60;;
70927;SDS011;58587;53.034;18.576;2022-08-21T09:49:42;16.73;;;11.67;;
70927;SDS011;58587;53.034;18.576;2022-08-21T09:52:42;19.55;;;11.60;;
70927;SDS011;58587;53.034;18.576;2022-08-21T09:55:07;16.38;;;12.07;;
70927;SDS011;58587;53.034;18.576;2022-08-21T09:58:01;18.77;;;12.13;;
70927;SDS011;58587;53.034;18.576;2022-08-21T10:00:28;20.07;;;12.13;;
70927;SDS011;58587;53.034;18.576;2022-08-21T10:03:17;15.85;;;11.05;;
70927;SDS011;58587;53.034;18.576;2022-08-21T10:06:21;18.55;;;11.82;;
70927;SDS011;58587;53.034;18.576;2022-08-21T10:08:45;16.48;;;11.70;;
70927;SDS011;58587;53.034;18.576;2022-08-21T10:11:12;16.73;;;11.40;;
70927;SDS011;58587;53.034;18.576;2022-08-21T10:13:47;16.23;;;10.98;;
70927;SDS011;58587;53.034;18.576;2022-08-21T10:21:34;16.52;;;11.20;;
70927;SDS011;58587;53.034;18.576;2022-08-21T10:29:54;18.17;;;11.13;;
70927;SDS011;58587;53.034;18.576;2022-08-21T10:43:02;20.45;;;12.43;;
70927;SDS011;58587;53.034;18.576;2022-08-21T10:48:39;17.70;;;12.67;;
70927;SDS011;58587;53.034;18.576;2022-08-21T10:51:13;18.63;;;12.60;;
70927;SDS011;58587;53.034;18.576;2022-08-21T10:56:31;16.10;;;12.45;;
70927;SDS011;58587;53.034;18.576;2022-08-21T10:59:07;18.55;;;13.23;;
70927;SDS011;58587;53.034;18.576;2022-08-21T11:04:24;17.58;;;13.15;;
70927;SDS011;58587;53.034;18.576;2022-08-21T11:06:57;21.50;;;13.60;;
70927;SDS011;58587;53.034;18.576;2022-08-21T11:09:26;16.00;;;13.13;;
70927;SDS011;58587;53.034;18.576;2022-08-21T11:11:55;16.87;;;13.40;;
70927;SDS011;58587;53.034;18.576;2022-08-21T11:17:34;17.92;;;13.07;;
70927;SDS011;58587;53.034;18.576;2022-08-21T11:20:12;17.02;;;12.88;;
70927;SDS011;58587;53.034;18.576;2022-08-21T11:25:52;13.68;;;11.65;;
70927;SDS011;58587;53.034;18.576;2022-08-21T11:28:24;15.98;;;12.02;;
70927;SDS011;58587;53.034;18.576;2022-08-21T11:36:44;15.37;;;10.63;;
70927;SDS011;58587;53.034;18.576;2022-08-21T11:39:22;13.73;;;10.93;;
70927;SDS011;58587;53.034;18.576;2022-08-21T11:47:14;10.15;;;8.65;;
70927;SDS011;58587;53.034;18.576;2022-08-21T11:49:50;9.70;;;8.33;;
70927;SDS011;58587;53.034;18.576;2022-08-21T11:52:44;9.15;;;7.20;;
70927;SDS011;58587;53.034;18.576;2022-08-21T11:57:58;10.10;;;7.25;;
70927;SDS011;58587;53.034;18.576;2022-08-21T12:00:31;7.47;;;6.72;;
70927;SDS011;58587;53.034;18.576;2022-08-21T12:03:06;7.83;;;6.87;;
70927;SDS011;58587;53.034;18.576;2022-08-21T12:05:41;7.75;;;6.53;;
70927;SDS011;58587;53.034;18.576;2022-08-21T12:08:27;7.25;;;6.05;;
70927;SDS011;58587;53.034;18.576;2022-08-21T12:11:06;6.65;;;6.00;;
70927;SDS011;58587;53.034;18.576;2022-08-21T12:13:33;7.30;;;6.50;;
70927;SDS011;58587;53.034;18.576;2022-08-21T12:16:08;7.13;;;5.73;;
70927;SDS011;58587;53.034;18.576;2022-08-21T12:18:41;7.85;;;6.28;;
70927;SDS011;58587;53.034;18.576;2022-08-21T12:21:26;7.97;;;6.25;;
70927;SDS011;58587;53.034;18.576;2022-08-21T12:29:25;9.63;;;5.90;;
70927;SDS011;58587;53.034;18.576;2022-08-21T12:32:00;8.38;;;5.70;;
70927;SDS011;58587;53.034;18.576;2022-08-21T12:34:51;8.55;;;5.90;;
70927;SDS011;58587;53.034;18.576;2022-08-21T12:37:22;7.63;;;6.28;;
70927;SDS011;58587;53.034;18.576;2022-08-21T12:39:54;6.70;;;6.00;;
70927;SDS011;58587;53.034;18.576;2022-08-21T12:42:26;8.23;;;6.07;;
70927;SDS011;58587;53.034;18.576;2022-08-21T12:45:00;7.97;;;5.75;;
70927;SDS011;58587;53.034;18.576;2022-08-21T12:47:34;6.63;;;5.90;;
70927;SDS011;58587;53.034;18.576;2022-08-21T12:50:19;6.68;;;6.05;;
70927;SDS011;58587;53.034;18.576;2022-08-21T12:55:53;7.00;;;5.83;;
70927;SDS011;58587;53.034;18.576;2022-08-21T12:58:24;6.57;;;5.90;;
70927;SDS011;58587;53.034;18.576;2022-08-21T13:00:51;7.70;;;5.93;;
70927;SDS011;58587;53.034;18.576;2022-08-21T13:03:21;7.18;;;5.75;;
70927;SDS011;58587;53.034;18.576;2022-08-21T13:05:48;7.87;;;5.53;;
70927;SDS011;58587;53.034;18.576;2022-08-21T13:08:16;7.07;;;5.60;;
70927;SDS011;58587;53.034;18.576;2022-08-21T13:10:44;6.15;;;5.55;;
70927;SDS011;58587;53.034;18.576;2022-08-21T13:13:19;7.30;;;5.20;;
70927;SDS011;58587;53.034;18.576;2022-08-21T13:15:47;6.10;;;5.38;;
70927;SDS011;58587;53.034;18.576;2022-08-21T13:18:19;8.23;;;5.97;;
70927;SDS011;58587;53.034;18.576;2022-08-21T13:20:47;9.32;;;6.45;;
70927;SDS011;58587;53.034;18.576;2022-08-21T13:23:27;9.52;;;6.22;;
70927;SDS011;58587;53.034;18.576;2022-08-21T13:25:54;7.53;;;5.67;;
70927;SDS011;58587;53.034;18.576;2022-08-21T13:28:20;6.28;;;5.45;;
70927;SDS011;58587;53.034;18.576;2022-08-21T13:30:46;7.77;;;6.10;;
70927;SDS011;58587;53.034;18.576;2022-08-21T13:33:18;7.60;;;5.07;;
70927;SDS011;58587;53.034;18.576;2022-08-21T13:35:57;6.30;;;5.70;;
70927;SDS011;58587;53.034;18.576;2022-08-21T13:38:29;8.25;;;5.68;;
70927;SDS011;58587;53.034;18.576;2022-08-21T13:40:58;6.65;;;5.68;;
70927;SDS011;58587;53.034;18.576;2022-08-21T13:43:28;7.50;;;5.30;;
70927;SDS011;58587;53.034;18.576;2022-08-21T13:45:57;7.30;;;5.72;;
70927;SDS011;58587;53.034;18.576;2022-08-21T13:48:25;6.30;;;5.53;;
70927;SDS011;58587;53.034;18.576;2022-08-21T13:50:52;8.60;;;5.75;;
70927;SDS011;58587;53.034;18.576;2022-08-21T13:53:30;6.95;;;5.60;;
70927;SDS011;58587;53.034;18.576;2022-08-21T13:55:59;7.87;;;5.30;;
70927;SDS011;58587;53.034;18.576;2022-08-21T13:58:26;7.57;;;5.38;;
70927;SDS011;58587;53.034;18.576;2022-08-21T14:00:58;6.20;;;5.50;;
70927;SDS011;58587;53.034;18.576;2022-08-21T14:03:33;7.90;;;4.72;;
70927;SDS011;58587;53.034;18.576;2022-08-21T14:06:10;7.10;;;4.50;;
70927;SDS011;58587;53.034;18.576;2022-08-21T14:08:38;5.40;;;3.80;;
70927;SDS011;58587;53.034;18.576;2022-08-21T14:11:09;6.82;;;4.05;;
70927;SDS011;58587;53.034;18.576;2022-08-21T14:13:42;4.00;;;3.60;;
70927;SDS011;58587;53.034;18.576;2022-08-21T14:16:11;5.50;;;3.70;;
70927;SDS011;58587;53.034;18.576;2022-08-21T14:21:41;4.10;;;3.20;;
70927;SDS011;58587;53.034;18.576;2022-08-21T14:26:55;7.80;;;3.30;;
70927;SDS011;58587;53.034;18.576;2022-08-21T14:29:26;4.55;;;2.97;;
70927;SDS011;58587;53.034;18.576;2022-08-21T14:31:57;4.32;;;2.95;;
70927;SDS011;58587;53.034;18.576;2022-08-21T14:34:25;4.73;;;3.20;;
70927;SDS011;58587;53.034;18.576;2022-08-21T14:36:52;6.13;;;2.95;;
70927;SDS011;58587;53.034;18.576;2022-08-21T14:39:18;4.90;;;2.80;;
70927;SDS011;58587;53.034;18.576;2022-08-21T14:41:44;4.73;;;2.40;;
70927;SDS011;58587;53.034;18.576;2022-08-21T14:44:11;5.05;;;3.28;;
70927;SDS011;58587;53.034;18.576;2022-08-21T14:46:44;5.43;;;3.05;;
70927;SDS011;58587;53.034;18.576;2022-08-21T14:49:10;4.72;;;3.00;;
70927;SDS011;58587;53.034;18.576;2022-08-21T14:51:36;5.33;;;3.00;;
70927;SDS011;58587;53.034;18.576;2022-08-21T14:54:01;2.85;;;2.38;;
70927;SDS011;58587;53.034;18.576;2022-08-21T14:56:27;3.03;;;2.47;;
70927;SDS011;58587;53.034;18.576;2022-08-21T14:58:53;4.57;;;2.77;;
70927;SDS011;58587;53.034;18.576;2022-08-21T15:01:21;3.90;;;2.45;;
70927;SDS011;58587;53.034;18.576;2022-08-21T15:03:47;3.80;;;2.50;;
70927;SDS011;58587;53.034;18.576;2022-08-21T15:06:13;4.68;;;2.20;;
70927;SDS011;58587;53.034;18.576;2022-08-21T15:08:41;3.08;;;1.95;;
70927;SDS011;58587;53.034;18.576;2022-08-21T15:11:07;4.20;;;2.27;;
70927;SDS011;58587;53.034;18.576;2022-08-21T15:13:36;4.63;;;2.92;;
70927;SDS011;58587;53.034;18.576;2022-08-21T15:16:01;7.37;;;3.03;;
70927;SDS011;58587;53.034;18.576;2022-08-21T15:18:28;3.47;;;2.20;;
70927;SDS011;58587;53.034;18.576;2022-08-21T15:20:54;3.27;;;2.10;;
70927;SDS011;58587;53.034;18.576;2022-08-21T15:23:20;4.57;;;2.40;;
70927;SDS011;58587;53.034;18.576;2022-08-21T15:25:46;3.13;;;2.40;;
70927;SDS011;58587;53.034;18.576;2022-08-21T15:28:13;4.90;;;2.42;;
70927;SDS011;58587;53.034;18.576;2022-08-21T15:30:41;4.65;;;2.40;;
70927;SDS011;58587;53.034;18.576;2022-08-21T15:33:07;4.43;;;2.40;;
70927;SDS011;58587;53.034;18.576;2022-08-21T15:35:32;2.17;;;1.83;;
70927;SDS011;58587;53.034;18.576;2022-08-21T15:37:58;4.20;;;2.70;;
70927;SDS011;58587;53.034;18.576;2022-08-21T15:40:24;5.00;;;2.67;;
70927;SDS011;58587;53.034;18.576;2022-08-21T15:42:50;5.03;;;2.17;;
70927;SDS011;58587;53.034;18.576;2022-08-21T15:45:20;2.58;;;2.10;;
70927;SDS011;58587;53.034;18.576;2022-08-21T15:47:45;3.80;;;1.97;;
70927;SDS011;58587;53.034;18.576;2022-08-21T15:50:13;2.60;;;2.20;;
70927;SDS011;58587;53.034;18.576;2022-08-21T15:52:39;4.80;;;2.80;;
70927;SDS011;58587;53.034;18.576;2022-08-21T15:55:04;2.97;;;2.33;;
70927;SDS011;58587;53.034;18.576;2022-08-21T15:57:31;2.10;;;1.90;;
70927;SDS011;58587;53.034;18.576;2022-08-21T15:59:57;3.63;;;2.00;;
70927;SDS011;58587;53.034;18.576;2022-08-21T16:02:31;2.60;;;2.20;;
70927;SDS011;58587;53.034;18.576;2022-08-21T16:04:57;3.60;;;1.75;;
70927;SDS011;58587;53.034;18.576;2022-08-21T16:07:23;2.97;;;2.13;;
70927;SDS011;58587;53.034;18.576;2022-08-21T16:09:49;3.47;;;2.10;;
70927;SDS011;58587;53.034;18.576;2022-08-21T16:12:24;3.08;;;1.75;;
70927;SDS011;58587;53.034;18.576;2022-08-21T16:14:52;3.73;;;2.00;;
70927;SDS011;58587;53.034;18.576;2022-08-21T16:17:20;3.47;;;2.03;;
70927;SDS011;58587;53.034;18.576;2022-08-21T16:19:48;3.65;;;2.28;;
70927;SDS011;58587;53.034;18.576;2022-08-21T16:22:13;2.40;;;1.90;;
70927;SDS011;58587;53.034;18.576;2022-08-21T16:24:39;3.80;;;2.27;;
70927;SDS011;58587;53.034;18.576;2022-08-21T16:27:04;2.35;;;2.13;;
70927;SDS011;58587;53.034;18.576;2022-08-21T16:29:32;3.30;;;2.20;;
70927;SDS011;58587;53.034;18.576;2022-08-21T16:31:59;2.92;;;2.05;;
70927;SDS011;58587;53.034;18.576;2022-08-21T16:34:25;3.00;;;2.00;;
70927;SDS011;58587;53.034;18.576;2022-08-21T16:36:52;3.93;;;2.00;;
70927;SDS011;58587;53.034;18.576;2022-08-21T16:39:18;3.60;;;2.30;;
70927;SDS011;58587;53.034;18.576;2022-08-21T16:41:43;3.53;;;2.37;;
70927;SDS011;58587;53.034;18.576;2022-08-21T16:44:09;2.93;;;2.10;;
70927;SDS011;58587;53.034;18.576;2022-08-21T16:46:35;3.17;;;2.00;;
70927;SDS011;58587;53.034;18.576;2022-08-21T16:49:03;4.88;;;2.20;;
70927;SDS011;58587;53.034;18.576;2022-08-21T16:51:29;2.43;;;2.00;;
70927;SDS011;58587;53.034;18.576;2022-08-21T16:53:56;2.67;;;1.80;;
70927;SDS011;58587;53.034;18.576;2022-08-21T16:56:22;2.60;;;1.73;;
70927;SDS011;58587;53.034;18.576;2022-08-21T16:58:48;2.60;;;1.85;;
70927;SDS011;58587;53.034;18.576;2022-08-21T17:01:15;2.55;;;2.08;;
70927;SDS011;58587;53.034;18.576;2022-08-21T17:03:44;3.37;;;1.47;;
70927;SDS011;58587;53.034;18.576;2022-08-21T17:06:11;1.83;;;1.60;;
70927;SDS011;58587;53.034;18.576;2022-08-21T17:08:38;3.03;;;2.10;;
70927;SDS011;58587;53.034;18.576;2022-08-21T17:11:07;2.40;;;1.67;;
70927;SDS011;58587;53.034;18.576;2022-08-21T17:13:35;3.00;;;2.08;;
70927;SDS011;58587;53.034;18.576;2022-08-21T17:16:02;3.67;;;1.70;;
70927;SDS011;58587;53.034;18.576;2022-08-21T17:18:28;2.00;;;1.80;;
70927;SDS011;58587;53.034;18.576;2022-08-21T17:20:53;2.60;;;1.43;;
70927;SDS011;58587;53.034;18.576;2022-08-21T17:23:19;3.45;;;1.90;;
70927;SDS011;58587;53.034;18.576;2022-08-21T17:25:46;2.83;;;1.73;;
70927;SDS011;58587;53.034;18.576;2022-08-21T17:28:20;2.25;;;1.77;;
70927;SDS011;58587;53.034;18.576;2022-08-21T17:30:47;3.43;;;1.60;;
70927;SDS011;58587;53.034;18.576;2022-08-21T17:33:14;2.97;;;1.70;;
70927;SDS011;58587;53.034;18.576;2022-08-21T17:35:41;3.55;;;1.95;;
70927;SDS011;58587;53.034;18.576;2022-08-21T17:38:07;3.25;;;2.08;;
70927;SDS011;58587;53.034;18.576;2022-08-21T17:40:33;3.77;;;2.00;;
70927;SDS011;58587;53.034;18.576;2022-08-21T17:42:59;3.60;;;1.90;;
70927;SDS011;58587;53.034;18.576;2022-08-21T17:45:25;5.57;;;1.80;;
70927;SDS011;58587;53.034;18.576;2022-08-21T17:47:50;2.65;;;1.63;;
70927;SDS011;58587;53.034;18.576;2022-08-21T17:50:16;4.03;;;2.10;;
70927;SDS011;58587;53.034;18.576;2022-08-21T17:52:42;3.80;;;2.00;;
70927;SDS011;58587;53.034;18.576;2022-08-21T17:55:09;2.63;;;1.63;;
70927;SDS011;58587;53.034;18.576;2022-08-21T17:57:36;3.38;;;2.08;;
70927;SDS011;58587;53.034;18.576;2022-08-21T18:00:04;2.80;;;1.58;;
70927;SDS011;58587;53.034;18.576;2022-08-21T18:02:31;3.13;;;1.85;;
70927;SDS011;58587;53.034;18.576;2022-08-21T18:04:57;3.53;;;2.30;;
70927;SDS011;58587;53.034;18.576;2022-08-21T18:07:23;3.63;;;1.55;;
70927;SDS011;58587;53.034;18.576;2022-08-21T18:09:48;2.90;;;1.97;;
70927;SDS011;58587;53.034;18.576;2022-08-21T18:12:14;2.77;;;2.07;;
70927;SDS011;58587;53.034;18.576;2022-08-21T18:14:39;4.38;;;1.88;;
70927;SDS011;58587;53.034;18.576;2022-08-21T18:17:06;4.23;;;2.33;;
70927;SDS011;58587;53.034;18.576;2022-08-21T18:19:34;2.92;;;2.10;;
70927;SDS011;58587;53.034;18.576;2022-08-21T18:21:59;4.73;;;2.13;;
70927;SDS011;58587;53.034;18.576;2022-08-21T18:24:25;3.65;;;2.15;;
70927;SDS011;58587;53.034;18.576;2022-08-21T18:26:51;4.40;;;2.00;;
70927;SDS011;58587;53.034;18.576;2022-08-21T18:29:18;3.67;;;1.80;;
70927;SDS011;58587;53.034;18.576;2022-08-21T18:31:46;2.58;;;1.88;;
70927;SDS011;58587;53.034;18.576;2022-08-21T18:36:54;4.27;;;2.20;;
70927;SDS011;58587;53.034;18.576;2022-08-21T18:39:20;4.82;;;1.85;;
70927;SDS011;58587;53.034;18.576;2022-08-21T18:41:46;4.60;;;2.17;;
70927;SDS011;58587;53.034;18.576;2022-08-21T18:44:13;3.70;;;2.10;;
70927;SDS011;58587;53.034;18.576;2022-08-21T18:46:41;3.05;;;1.95;;
70927;SDS011;58587;53.034;18.576;2022-08-21T18:49:28;2.97;;;1.90;;
70927;SDS011;58587;53.034;18.576;2022-08-21T18:51:53;3.33;;;2.15;;
70927;SDS011;58587;53.034;18.576;2022-08-21T18:54:19;7.22;;;2.28;;
70927;SDS011;58587;53.034;18.576;2022-08-21T18:56:45;6.73;;;2.07;;
70927;SDS011;58587;53.034;18.576;2022-08-21T18:59:11;3.53;;;2.30;;
70927;SDS011;58587;53.034;18.576;2022-08-21T19:01:37;3.90;;;2.20;;
70927;SDS011;58587;53.034;18.576;2022-08-21T19:04:04;3.47;;;2.38;;
70927;SDS011;58587;53.034;18.576;2022-08-21T19:06:31;3.63;;;2.30;;
70927;SDS011;58587;53.034;18.576;2022-08-21T19:08:57;2.92;;;2.33;;
70927;SDS011;58587;53.034;18.576;2022-08-21T19:11:25;4.63;;;2.30;;
70927;SDS011;58587;53.034;18.576;2022-08-21T19:13:52;4.95;;;2.40;;
70927;SDS011;58587;53.034;18.576;2022-08-21T19:16:18;4.57;;;2.45;;
70927;SDS011;58587;53.034;18.576;2022-08-21T19:18:45;5.35;;;2.30;;
70927;SDS011;58587;53.034;18.576;2022-08-21T19:21:10;4.27;;;2.43;;
70927;SDS011;58587;53.034;18.576;2022-08-21T19:23:36;3.77;;;2.30;;
70927;SDS011;58587;53.034;18.576;2022-08-21T19:26:02;3.67;;;2.60;;
70927;SDS011;58587;53.034;18.576;2022-08-21T19:28:39;3.65;;;2.45;;
70927;SDS011;58587;53.034;18.576;2022-08-21T19:33:38;5.28;;;2.60;;
70927;SDS011;58587;53.034;18.576;2022-08-21T19:36:07;4.85;;;2.50;;
70927;SDS011;58587;53.034;18.576;2022-08-21T19:38:33;4.77;;;2.40;;
70927;SDS011;58587;53.034;18.576;2022-08-21T19:40:59;3.45;;;2.45;;
70927;SDS011;58587;53.034;18.576;2022-08-21T19:43:25;4.28;;;2.63;;
70927;SDS011;58587;53.034;18.576;2022-08-21T19:45:55;4.60;;;2.53;;
70927;SDS011;58587;53.034;18.576;2022-08-21T19:48:22;3.70;;;2.67;;
70927;SDS011;58587;53.034;18.576;2022-08-21T19:50:49;4.35;;;2.88;;
70927;SDS011;58587;53.034;18.576;2022-08-21T19:53:15;5.20;;;2.75;;
70927;SDS011;58587;53.034;18.576;2022-08-21T19:55:42;4.78;;;2.67;;
70927;SDS011;58587;53.034;18.576;2022-08-21T19:58:14;3.63;;;2.67;;
70927;SDS011;58587;53.034;18.576;2022-08-21T20:00:49;4.83;;;2.50;;
70927;SDS011;58587;53.034;18.576;2022-08-21T20:03:15;5.82;;;2.40;;
70927;SDS011;58587;53.034;18.576;2022-08-21T20:05:40;3.73;;;2.47;;
70927;SDS011;58587;53.034;18.576;2022-08-21T20:08:08;5.60;;;2.63;;
70927;SDS011;58587;53.034;18.576;2022-08-21T20:10:33;5.80;;;2.83;;
70927;SDS011;58587;53.034;18.576;2022-08-21T20:12:59;4.57;;;2.80;;
70927;SDS011;58587;53.034;18.576;2022-08-21T20:15:25;7.03;;;2.80;;
70927;SDS011;58587;53.034;18.576;2022-08-21T20:17:50;4.80;;;2.93;;
70927;SDS011;58587;53.034;18.576;2022-08-21T20:20:16;5.78;;;2.90;;
70927;SDS011;58587;53.034;18.576;2022-08-21T20:22:42;5.68;;;2.50;;
70927;SDS011;58587;53.034;18.576;2022-08-21T20:25:07;9.17;;;2.47;;
70927;SDS011;58587;53.034;18.576;2022-08-21T20:27:33;4.50;;;2.50;;
70927;SDS011;58587;53.034;18.576;2022-08-21T20:29:59;4.40;;;2.50;;
70927;SDS011;58587;53.034;18.576;2022-08-21T20:32:24;5.63;;;2.43;;
70927;SDS011;58587;53.034;18.576;2022-08-21T20:34:50;6.80;;;2.40;;
70927;SDS011;58587;53.034;18.576;2022-08-21T20:37:16;4.90;;;2.28;;
70927;SDS011;58587;53.034;18.576;2022-08-21T20:39:41;3.55;;;2.35;;
70927;SDS011;58587;53.034;18.576;2022-08-21T20:42:07;4.07;;;2.40;;
70927;SDS011;58587;53.034;18.576;2022-08-21T20:44:33;3.42;;;1.90;;
70927;SDS011;58587;53.034;18.576;2022-08-21T20:47:00;5.40;;;2.23;;
70927;SDS011;58587;53.034;18.576;2022-08-21T20:49:27;3.67;;;2.30;;
70927;SDS011;58587;53.034;18.576;2022-08-21T20:51:57;3.30;;;2.10;;
70927;SDS011;58587;53.034;18.576;2022-08-21T20:57:13;3.28;;;2.00;;
70927;SDS011;58587;53.034;18.576;2022-08-21T20:59:55;3.07;;;2.40;;
70927;SDS011;58587;53.034;18.576;2022-08-21T21:02:49;4.13;;;1.83;;
70927;SDS011;58587;53.034;18.576;2022-08-21T21:05:23;4.72;;;1.92;;
70927;SDS011;58587;53.034;18.576;2022-08-21T21:08:03;4.35;;;2.15;;
70927;SDS011;58587;53.034;18.576;2022-08-21T21:13:07;2.90;;;1.70;;
70927;SDS011;58587;53.034;18.576;2022-08-21T21:15:42;3.55;;;1.70;;
70927;SDS011;58587;53.034;18.576;2022-08-21T21:18:11;3.25;;;2.20;;
70927;SDS011;58587;53.034;18.576;2022-08-21T21:23:15;4.03;;;1.85;;
70927;SDS011;58587;53.034;18.576;2022-08-21T21:25:47;2.53;;;1.93;;
70927;SDS011;58587;53.034;18.576;2022-08-21T21:28:38;3.03;;;1.77;;
70927;SDS011;58587;53.034;18.576;2022-08-21T21:31:19;7.00;;;2.10;;
70927;SDS011;58587;53.034;18.576;2022-08-21T21:33:46;3.70;;;1.98;;
70927;SDS011;58587;53.034;18.576;2022-08-21T21:39:07;3.17;;;1.80;;
70927;SDS011;58587;53.034;18.576;2022-08-21T21:44:07;3.75;;;1.92;;
70927;SDS011;58587;53.034;18.576;2022-08-21T22:00:10;5.13;;;2.15;;
70927;SDS011;58587;53.034;18.576;2022-08-21T22:02:50;3.28;;;1.95;;
70927;SDS011;58587;53.034;18.576;2022-08-21T22:10:35;3.90;;;2.00;;
70927;SDS011;58587;53.034;18.576;2022-08-21T22:13:32;6.32;;;2.53;;
70927;SDS011;58587;53.034;18.576;2022-08-21T22:16:02;7.80;;;2.38;;
70927;SDS011;58587;53.034;18.576;2022-08-21T22:18:31;6.23;;;2.60;;
70927;SDS011;58587;53.034;18.576;2022-08-21T22:21:07;3.90;;;2.10;;
70927;SDS011;58587;53.034;18.576;2022-08-21T22:23:40;2.70;;;2.08;;
70927;SDS011;58587;53.034;18.576;2022-08-21T22:26:13;4.63;;;1.92;;
70927;SDS011;58587;53.034;18.576;2022-08-21T22:28:42;3.90;;;2.00;;
70927;SDS011;58587;53.034;18.576;2022-08-21T22:31:17;4.20;;;2.13;;
70927;SDS011;58587;53.034;18.576;2022-08-21T22:34:30;4.63;;;2.10;;
70927;SDS011;58587;53.034;18.576;2022-08-21T22:37:02;3.28;;;1.67;;
70927;SDS011;58587;53.034;18.576;2022-08-21T22:39:32;2.78;;;1.58;;
70927;SDS011;58587;53.034;18.576;2022-08-21T22:42:08;4.32;;;1.60;;
70927;SDS011;58587;53.034;18.576;2022-08-21T22:44:49;3.57;;;1.60;;
70927;SDS011;58587;53.034;18.576;2022-08-21T22:47:18;2.95;;;1.55;;
70927;SDS011;58587;53.034;18.576;2022-08-21T22:49:47;3.00;;;1.65;;
70927;SDS011;58587;53.034;18.576;2022-08-21T22:52:35;4.55;;;1.80;;
70927;SDS011;58587;53.034;18.576;2022-08-21T22:55:21;5.88;;;1.50;;
70927;SDS011;58587;53.034;18.576;2022-08-21T22:57:47;3.37;;;1.43;;
70927;SDS011;58587;53.034;18.576;2022-08-21T23:03:19;3.03;;;1.45;;
70927;SDS011;58587;53.034;18.576;2022-08-21T23:06:04;3.67;;;1.73;;
70927;SDS011;58587;53.034;18.576;2022-08-21T23:08:45;3.17;;;1.70;;
70927;SDS011;58587;53.034;18.576;2022-08-21T23:11:13;3.60;;;1.60;;
70927;SDS011;58587;53.034;18.576;2022-08-21T23:13:43;2.53;;;1.60;;
70927;SDS011;58587;53.034;18.576;2022-08-21T23:30:22;2.03;;;1.33;;
70927;SDS011;58587;53.034;18.576;2022-08-21T23:35:43;5.15;;;1.70;;
70927;SDS011;58587;53.034;18.576;2022-08-21T23:41:26;2.65;;;1.42;;
